sensor_id;sensor_type;location;lat;lon;timestamp;P1;durP1;ratioP1;P2;durP2;ratioP2
51556;SDS011;38766;53.194;5.532;2023-06-10T00:02:04;9.98;;;5.78;;
51556;SDS011;38766;53.194;5.532;2023-06-10T00:04:30;10.48;;;6.30;;
51556;SDS011;38766;53.194;5.532;2023-06-10T00:06:56;13.60;;;6.25;;
51556;SDS011;38766;53.194;5.532;2023-06-10T00:09:22;14.45;;;7.13;;
51556;SDS011;38766;53.194;5.532;2023-06-10T00:11:47;12.98;;;6.88;;
51556;SDS011;38766;53.194;5.532;2023-06-10T00:14:13;13.80;;;7.57;;
51556;SDS011;38766;53.194;5.532;2023-06-10T00:16:39;14.23;;;6.95;;
51556;SDS011;38766;53.194;5.532;2023-06-10T00:19:10;14.23;;;6.72;;
51556;SDS011;38766;53.194;5.532;2023-06-10T00:21:38;10.50;;;6.20;;
51556;SDS011;38766;53.194;5.532;2023-06-10T00:24:05;10.48;;;6.20;;
51556;SDS011;38766;53.194;5.532;2023-06-10T00:26:31;11.95;;;6.53;;
51556;SDS011;38766;53.194;5.532;2023-06-10T00:28:58;9.43;;;6.10;;
51556;SDS011;38766;53.194;5.532;2023-06-10T00:31:27;12.98;;;6.78;;
51556;SDS011;38766;53.194;5.532;2023-06-10T00:33:52;12.07;;;6.30;;
51556;SDS011;38766;53.194;5.532;2023-06-10T00:36:18;11.18;;;5.72;;
51556;SDS011;38766;53.194;5.532;2023-06-10T00:38:44;13.70;;;7.18;;
51556;SDS011;38766;53.194;5.532;2023-06-10T00:41:10;9.60;;;5.93;;
51556;SDS011;38766;53.194;5.532;2023-06-10T00:43:35;10.82;;;6.40;;
51556;SDS011;38766;53.194;5.532;2023-06-10T00:46:01;12.05;;;5.97;;
51556;SDS011;38766;53.194;5.532;2023-06-10T00:48:27;12.07;;;5.85;;
51556;SDS011;38766;53.194;5.532;2023-06-10T00:50:53;11.02;;;6.32;;
51556;SDS011;38766;53.194;5.532;2023-06-10T00:53:19;9.45;;;6.45;;
51556;SDS011;38766;53.194;5.532;2023-06-10T00:55:46;9.88;;;6.45;;
51556;SDS011;38766;53.194;5.532;2023-06-10T00:58:12;10.77;;;6.13;;
51556;SDS011;38766;53.194;5.532;2023-06-10T01:00:38;9.25;;;6.40;;
51556;SDS011;38766;53.194;5.532;2023-06-10T01:03:04;9.48;;;6.43;;
51556;SDS011;38766;53.194;5.532;2023-06-10T01:05:36;11.50;;;6.22;;
51556;SDS011;38766;53.194;5.532;2023-06-10T01:08:05;13.48;;;6.57;;
51556;SDS011;38766;53.194;5.532;2023-06-10T01:10:38;9.15;;;6.03;;
51556;SDS011;38766;53.194;5.532;2023-06-10T01:13:10;9.13;;;5.82;;
51556;SDS011;38766;53.194;5.532;2023-06-10T01:15:39;10.73;;;6.28;;
51556;SDS011;38766;53.194;5.532;2023-06-10T01:18:06;11.77;;;6.45;;
51556;SDS011;38766;53.194;5.532;2023-06-10T01:20:40;10.82;;;6.32;;
51556;SDS011;38766;53.194;5.532;2023-06-10T01:23:08;11.73;;;6.57;;
51556;SDS011;38766;53.194;5.532;2023-06-10T01:25:36;10.55;;;6.72;;
51556;SDS011;38766;53.194;5.532;2023-06-10T01:33:27;8.82;;;6.82;;
51556;SDS011;38766;53.194;5.532;2023-06-10T01:35:56;10.82;;;6.20;;
51556;SDS011;38766;53.194;5.532;2023-06-10T01:38:24;9.60;;;6.85;;
51556;SDS011;38766;53.194;5.532;2023-06-10T01:40:52;8.00;;;6.10;;
51556;SDS011;38766;53.194;5.532;2023-06-10T01:43:20;12.68;;;7.03;;
51556;SDS011;38766;53.194;5.532;2023-06-10T01:45:46;10.77;;;7.10;;
51556;SDS011;38766;53.194;5.532;2023-06-10T01:48:12;11.57;;;6.20;;
51556;SDS011;38766;53.194;5.532;2023-06-10T01:50:38;11.45;;;6.57;;
51556;SDS011;38766;53.194;5.532;2023-06-10T01:53:04;12.48;;;6.88;;
51556;SDS011;38766;53.194;5.532;2023-06-10T01:55:32;10.63;;;7.15;;
51556;SDS011;38766;53.194;5.532;2023-06-10T01:57:58;9.45;;;6.45;;
51556;SDS011;38766;53.194;5.532;2023-06-10T02:00:23;8.93;;;6.80;;
51556;SDS011;38766;53.194;5.532;2023-06-10T02:02:49;11.18;;;6.97;;
51556;SDS011;38766;53.194;5.532;2023-06-10T02:05:15;13.02;;;6.65;;
51556;SDS011;38766;53.194;5.532;2023-06-10T02:07:40;9.60;;;6.30;;
51556;SDS011;38766;53.194;5.532;2023-06-10T02:10:06;11.90;;;6.85;;
51556;SDS011;38766;53.194;5.532;2023-06-10T02:12:35;15.68;;;6.32;;
51556;SDS011;38766;53.194;5.532;2023-06-10T02:15:01;9.48;;;6.50;;
51556;SDS011;38766;53.194;5.532;2023-06-10T02:17:26;11.30;;;6.53;;
51556;SDS011;38766;53.194;5.532;2023-06-10T02:19:52;12.30;;;6.20;;
51556;SDS011;38766;53.194;5.532;2023-06-10T02:22:21;12.25;;;6.50;;
51556;SDS011;38766;53.194;5.532;2023-06-10T02:24:48;10.80;;;7.05;;
51556;SDS011;38766;53.194;5.532;2023-06-10T02:27:14;8.98;;;6.30;;
51556;SDS011;38766;53.194;5.532;2023-06-10T02:29:40;11.10;;;6.85;;
51556;SDS011;38766;53.194;5.532;2023-06-10T02:32:06;13.50;;;7.05;;
51556;SDS011;38766;53.194;5.532;2023-06-10T02:34:32;11.43;;;7.25;;
51556;SDS011;38766;53.194;5.532;2023-06-10T02:36:58;11.20;;;7.22;;
51556;SDS011;38766;53.194;5.532;2023-06-10T02:39:24;12.15;;;7.60;;
51556;SDS011;38766;53.194;5.532;2023-06-10T02:41:50;10.73;;;7.50;;
51556;SDS011;38766;53.194;5.532;2023-06-10T02:44:17;10.05;;;6.78;;
51556;SDS011;38766;53.194;5.532;2023-06-10T02:46:43;8.65;;;6.65;;
51556;SDS011;38766;53.194;5.532;2023-06-10T02:49:09;11.73;;;7.13;;
51556;SDS011;38766;53.194;5.532;2023-06-10T02:51:35;13.77;;;6.78;;
51556;SDS011;38766;53.194;5.532;2023-06-10T02:54:01;14.25;;;7.82;;
51556;SDS011;38766;53.194;5.532;2023-06-10T02:56:27;9.32;;;6.60;;
51556;SDS011;38766;53.194;5.532;2023-06-10T02:58:52;11.73;;;6.97;;
51556;SDS011;38766;53.194;5.532;2023-06-10T03:01:18;9.10;;;6.30;;
51556;SDS011;38766;53.194;5.532;2023-06-10T03:03:44;8.27;;;6.20;;
51556;SDS011;38766;53.194;5.532;2023-06-10T03:06:11;12.23;;;6.65;;
51556;SDS011;38766;53.194;5.532;2023-06-10T03:08:38;10.23;;;6.82;;
51556;SDS011;38766;53.194;5.532;2023-06-10T03:11:05;9.90;;;6.97;;
51556;SDS011;38766;53.194;5.532;2023-06-10T03:13:31;10.93;;;7.07;;
51556;SDS011;38766;53.194;5.532;2023-06-10T03:15:57;12.32;;;6.75;;
51556;SDS011;38766;53.194;5.532;2023-06-10T03:18:27;12.18;;;6.88;;
51556;SDS011;38766;53.194;5.532;2023-06-10T03:20:53;10.27;;;7.40;;
51556;SDS011;38766;53.194;5.532;2023-06-10T03:23:22;12.23;;;7.88;;
51556;SDS011;38766;53.194;5.532;2023-06-10T03:25:48;10.95;;;7.45;;
51556;SDS011;38766;53.194;5.532;2023-06-10T03:28:14;12.10;;;7.10;;
51556;SDS011;38766;53.194;5.532;2023-06-10T03:30:39;10.75;;;7.20;;
51556;SDS011;38766;53.194;5.532;2023-06-10T03:33:05;13.30;;;7.15;;
51556;SDS011;38766;53.194;5.532;2023-06-10T03:35:31;12.85;;;7.32;;
51556;SDS011;38766;53.194;5.532;2023-06-10T03:37:59;10.27;;;7.30;;
51556;SDS011;38766;53.194;5.532;2023-06-10T03:40:25;14.45;;;6.90;;
51556;SDS011;38766;53.194;5.532;2023-06-10T03:42:51;12.32;;;7.20;;
51556;SDS011;38766;53.194;5.532;2023-06-10T03:45:19;9.98;;;6.90;;
51556;SDS011;38766;53.194;5.532;2023-06-10T03:47:45;12.35;;;7.20;;
51556;SDS011;38766;53.194;5.532;2023-06-10T03:50:13;12.25;;;7.88;;
51556;SDS011;38766;53.194;5.532;2023-06-10T03:52:38;10.02;;;6.75;;
51556;SDS011;38766;53.194;5.532;2023-06-10T03:55:05;9.23;;;6.95;;
51556;SDS011;38766;53.194;5.532;2023-06-10T03:57:31;11.25;;;6.60;;
51556;SDS011;38766;53.194;5.532;2023-06-10T03:59:56;10.45;;;6.53;;
51556;SDS011;38766;53.194;5.532;2023-06-10T04:02:22;9.77;;;6.82;;
51556;SDS011;38766;53.194;5.532;2023-06-10T04:04:48;9.68;;;6.40;;
51556;SDS011;38766;53.194;5.532;2023-06-10T04:07:14;12.90;;;7.70;;
51556;SDS011;38766;53.194;5.532;2023-06-10T04:09:40;10.55;;;6.95;;
51556;SDS011;38766;53.194;5.532;2023-06-10T04:12:08;9.88;;;6.15;;
51556;SDS011;38766;53.194;5.532;2023-06-10T04:14:35;10.38;;;6.85;;
51556;SDS011;38766;53.194;5.532;2023-06-10T04:17:02;11.63;;;6.90;;
51556;SDS011;38766;53.194;5.532;2023-06-10T04:19:31;12.45;;;7.30;;
51556;SDS011;38766;53.194;5.532;2023-06-10T04:21:57;8.48;;;6.18;;
51556;SDS011;38766;53.194;5.532;2023-06-10T04:24:23;10.52;;;6.78;;
51556;SDS011;38766;53.194;5.532;2023-06-10T04:26:48;9.45;;;6.30;;
51556;SDS011;38766;53.194;5.532;2023-06-10T04:29:14;12.63;;;7.38;;
51556;SDS011;38766;53.194;5.532;2023-06-10T04:31:40;13.30;;;6.40;;
51556;SDS011;38766;53.194;5.532;2023-06-10T04:34:06;10.63;;;6.55;;
51556;SDS011;38766;53.194;5.532;2023-06-10T04:36:32;9.25;;;6.72;;
51556;SDS011;38766;53.194;5.532;2023-06-10T04:38:58;12.93;;;6.85;;
51556;SDS011;38766;53.194;5.532;2023-06-10T04:41:23;11.10;;;6.10;;
51556;SDS011;38766;53.194;5.532;2023-06-10T04:43:50;10.00;;;6.38;;
51556;SDS011;38766;53.194;5.532;2023-06-10T04:46:16;10.05;;;6.35;;
51556;SDS011;38766;53.194;5.532;2023-06-10T04:48:42;11.68;;;6.70;;
51556;SDS011;38766;53.194;5.532;2023-06-10T04:51:09;9.63;;;6.20;;
51556;SDS011;38766;53.194;5.532;2023-06-10T04:53:35;12.90;;;6.45;;
51556;SDS011;38766;53.194;5.532;2023-06-10T04:56:01;10.05;;;6.10;;
51556;SDS011;38766;53.194;5.532;2023-06-10T04:58:27;10.50;;;6.18;;
51556;SDS011;38766;53.194;5.532;2023-06-10T05:00:52;10.32;;;6.20;;
51556;SDS011;38766;53.194;5.532;2023-06-10T05:03:18;10.13;;;6.05;;
51556;SDS011;38766;53.194;5.532;2023-06-10T05:05:43;9.55;;;5.60;;
51556;SDS011;38766;53.194;5.532;2023-06-10T05:08:09;13.38;;;6.65;;
51556;SDS011;38766;53.194;5.532;2023-06-10T05:10:35;7.03;;;5.50;;
51556;SDS011;38766;53.194;5.532;2023-06-10T05:13:00;9.55;;;6.20;;
51556;SDS011;38766;53.194;5.532;2023-06-10T05:15:26;11.18;;;5.35;;
51556;SDS011;38766;53.194;5.532;2023-06-10T05:17:51;8.48;;;5.65;;
51556;SDS011;38766;53.194;5.532;2023-06-10T05:20:17;13.98;;;6.38;;
51556;SDS011;38766;53.194;5.532;2023-06-10T05:22:43;9.10;;;5.53;;
51556;SDS011;38766;53.194;5.532;2023-06-10T05:25:09;11.80;;;5.65;;
51556;SDS011;38766;53.194;5.532;2023-06-10T05:27:35;8.38;;;6.55;;
51556;SDS011;38766;53.194;5.532;2023-06-10T05:30:01;11.20;;;6.15;;
51556;SDS011;38766;53.194;5.532;2023-06-10T05:32:30;10.75;;;5.93;;
51556;SDS011;38766;53.194;5.532;2023-06-10T05:34:56;9.25;;;5.18;;
51556;SDS011;38766;53.194;5.532;2023-06-10T05:37:21;14.15;;;6.15;;
51556;SDS011;38766;53.194;5.532;2023-06-10T05:39:47;12.38;;;6.70;;
51556;SDS011;38766;53.194;5.532;2023-06-10T05:42:13;15.25;;;6.22;;
51556;SDS011;38766;53.194;5.532;2023-06-10T05:44:38;13.73;;;6.25;;
51556;SDS011;38766;53.194;5.532;2023-06-10T05:47:04;12.75;;;6.47;;
51556;SDS011;38766;53.194;5.532;2023-06-10T05:49:30;9.02;;;6.03;;
51556;SDS011;38766;53.194;5.532;2023-06-10T05:51:55;14.45;;;6.50;;
51556;SDS011;38766;53.194;5.532;2023-06-10T05:54:23;9.52;;;6.63;;
51556;SDS011;38766;53.194;5.532;2023-06-10T05:56:49;9.27;;;5.63;;
51556;SDS011;38766;53.194;5.532;2023-06-10T05:59:14;12.68;;;5.75;;
51556;SDS011;38766;53.194;5.532;2023-06-10T06:01:40;10.80;;;5.75;;
51556;SDS011;38766;53.194;5.532;2023-06-10T06:04:05;12.48;;;5.82;;
51556;SDS011;38766;53.194;5.532;2023-06-10T06:06:31;9.90;;;5.65;;
51556;SDS011;38766;53.194;5.532;2023-06-10T06:08:56;9.93;;;5.43;;
51556;SDS011;38766;53.194;5.532;2023-06-10T06:11:22;11.10;;;5.45;;
51556;SDS011;38766;53.194;5.532;2023-06-10T06:13:48;12.07;;;6.50;;
51556;SDS011;38766;53.194;5.532;2023-06-10T06:16:13;9.18;;;5.65;;
51556;SDS011;38766;53.194;5.532;2023-06-10T06:18:39;9.98;;;6.20;;
51556;SDS011;38766;53.194;5.532;2023-06-10T06:21:04;9.13;;;5.88;;
51556;SDS011;38766;53.194;5.532;2023-06-10T06:23:30;10.45;;;5.53;;
51556;SDS011;38766;53.194;5.532;2023-06-10T06:25:56;12.85;;;5.45;;
51556;SDS011;38766;53.194;5.532;2023-06-10T06:28:21;11.02;;;6.40;;
51556;SDS011;38766;53.194;5.532;2023-06-10T06:30:47;10.07;;;5.50;;
51556;SDS011;38766;53.194;5.532;2023-06-10T06:33:13;8.10;;;5.78;;
51556;SDS011;38766;53.194;5.532;2023-06-10T06:35:39;9.55;;;5.70;;
51556;SDS011;38766;53.194;5.532;2023-06-10T06:38:05;10.07;;;5.65;;
51556;SDS011;38766;53.194;5.532;2023-06-10T06:40:30;12.27;;;5.30;;
51556;SDS011;38766;53.194;5.532;2023-06-10T06:42:56;9.90;;;5.22;;
51556;SDS011;38766;53.194;5.532;2023-06-10T06:45:22;10.40;;;5.32;;
51556;SDS011;38766;53.194;5.532;2023-06-10T06:47:47;10.35;;;6.22;;
51556;SDS011;38766;53.194;5.532;2023-06-10T06:50:13;8.35;;;5.22;;
51556;SDS011;38766;53.194;5.532;2023-06-10T06:52:39;9.27;;;4.95;;
51556;SDS011;38766;53.194;5.532;2023-06-10T06:55:05;11.52;;;5.85;;
51556;SDS011;38766;53.194;5.532;2023-06-10T06:57:30;10.75;;;5.38;;
51556;SDS011;38766;53.194;5.532;2023-06-10T06:59:56;9.68;;;5.30;;
51556;SDS011;38766;53.194;5.532;2023-06-10T07:02:22;9.60;;;5.35;;
51556;SDS011;38766;53.194;5.532;2023-06-10T07:04:48;10.85;;;4.70;;
51556;SDS011;38766;53.194;5.532;2023-06-10T07:07:14;10.13;;;4.85;;
51556;SDS011;38766;53.194;5.532;2023-06-10T07:09:40;8.52;;;4.60;;
51556;SDS011;38766;53.194;5.532;2023-06-10T07:12:06;9.70;;;4.75;;
51556;SDS011;38766;53.194;5.532;2023-06-10T07:14:32;8.43;;;4.88;;
51556;SDS011;38766;53.194;5.532;2023-06-10T07:16:58;9.73;;;5.05;;
51556;SDS011;38766;53.194;5.532;2023-06-10T07:19:23;10.75;;;4.90;;
51556;SDS011;38766;53.194;5.532;2023-06-10T07:21:49;8.13;;;5.15;;
51556;SDS011;38766;53.194;5.532;2023-06-10T07:24:15;11.48;;;5.13;;
51556;SDS011;38766;53.194;5.532;2023-06-10T07:26:40;9.45;;;5.00;;
51556;SDS011;38766;53.194;5.532;2023-06-10T07:29:06;10.77;;;5.18;;
51556;SDS011;38766;53.194;5.532;2023-06-10T07:31:31;9.00;;;4.35;;
51556;SDS011;38766;53.194;5.532;2023-06-10T07:33:57;10.82;;;4.45;;
51556;SDS011;38766;53.194;5.532;2023-06-10T07:36:23;6.78;;;4.03;;
51556;SDS011;38766;53.194;5.532;2023-06-10T07:38:48;6.18;;;4.43;;
51556;SDS011;38766;53.194;5.532;2023-06-10T07:41:20;7.78;;;4.00;;
51556;SDS011;38766;53.194;5.532;2023-06-10T07:43:47;7.43;;;3.90;;
51556;SDS011;38766;53.194;5.532;2023-06-10T07:46:13;10.80;;;4.82;;
51556;SDS011;38766;53.194;5.532;2023-06-10T07:48:38;8.27;;;5.10;;
51556;SDS011;38766;53.194;5.532;2023-06-10T07:51:04;9.93;;;4.78;;
51556;SDS011;38766;53.194;5.532;2023-06-10T07:53:33;8.30;;;4.78;;
51556;SDS011;38766;53.194;5.532;2023-06-10T07:55:58;7.25;;;4.10;;
51556;SDS011;38766;53.194;5.532;2023-06-10T07:58:24;8.73;;;4.00;;
51556;SDS011;38766;53.194;5.532;2023-06-10T08:00:49;6.18;;;3.92;;
51556;SDS011;38766;53.194;5.532;2023-06-10T08:03:15;9.20;;;4.50;;
51556;SDS011;38766;53.194;5.532;2023-06-10T08:05:41;6.40;;;4.30;;
51556;SDS011;38766;53.194;5.532;2023-06-10T08:08:06;7.20;;;4.15;;
51556;SDS011;38766;53.194;5.532;2023-06-10T08:10:32;7.95;;;4.05;;
51556;SDS011;38766;53.194;5.532;2023-06-10T08:12:58;7.88;;;4.32;;
51556;SDS011;38766;53.194;5.532;2023-06-10T08:15:23;6.00;;;4.43;;
51556;SDS011;38766;53.194;5.532;2023-06-10T08:17:49;4.70;;;4.07;;
51556;SDS011;38766;53.194;5.532;2023-06-10T08:20:15;5.72;;;4.40;;
51556;SDS011;38766;53.194;5.532;2023-06-10T08:22:41;7.65;;;4.65;;
51556;SDS011;38766;53.194;5.532;2023-06-10T08:25:07;7.93;;;4.53;;
51556;SDS011;38766;53.194;5.532;2023-06-10T08:27:33;7.53;;;5.07;;
51556;SDS011;38766;53.194;5.532;2023-06-10T08:29:59;8.93;;;4.85;;
51556;SDS011;38766;53.194;5.532;2023-06-10T08:32:25;9.75;;;4.53;;
51556;SDS011;38766;53.194;5.532;2023-06-10T08:34:51;6.75;;;4.57;;
51556;SDS011;38766;53.194;5.532;2023-06-10T08:37:17;7.10;;;4.57;;
51556;SDS011;38766;53.194;5.532;2023-06-10T08:39:42;8.48;;;4.63;;
51556;SDS011;38766;53.194;5.532;2023-06-10T08:44:58;9.05;;;4.53;;
51556;SDS011;38766;53.194;5.532;2023-06-10T08:47:27;8.13;;;4.63;;
51556;SDS011;38766;53.194;5.532;2023-06-10T08:50:02;8.50;;;4.37;;
51556;SDS011;38766;53.194;5.532;2023-06-10T08:52:29;7.25;;;4.25;;
51556;SDS011;38766;53.194;5.532;2023-06-10T08:55:08;5.00;;;4.25;;
51556;SDS011;38766;53.194;5.532;2023-06-10T08:57:37;7.28;;;4.85;;
51556;SDS011;38766;53.194;5.532;2023-06-10T09:00:03;6.30;;;4.30;;
51556;SDS011;38766;53.194;5.532;2023-06-10T09:02:30;7.60;;;4.45;;
51556;SDS011;38766;53.194;5.532;2023-06-10T09:05:00;8.50;;;4.55;;
51556;SDS011;38766;53.194;5.532;2023-06-10T09:07:27;6.35;;;3.75;;
51556;SDS011;38766;53.194;5.532;2023-06-10T09:09:56;5.38;;;3.42;;
51556;SDS011;38766;53.194;5.532;2023-06-10T09:12:24;5.00;;;3.63;;
51556;SDS011;38766;53.194;5.532;2023-06-10T09:14:49;5.47;;;3.92;;
51556;SDS011;38766;53.194;5.532;2023-06-10T09:17:16;4.82;;;3.60;;
51556;SDS011;38766;53.194;5.532;2023-06-10T09:19:42;6.85;;;3.42;;
51556;SDS011;38766;53.194;5.532;2023-06-10T09:22:09;6.85;;;3.33;;
51556;SDS011;38766;53.194;5.532;2023-06-10T09:24:35;4.10;;;3.08;;
51556;SDS011;38766;53.194;5.532;2023-06-10T09:27:04;5.63;;;3.65;;
51556;SDS011;38766;53.194;5.532;2023-06-10T09:29:32;3.78;;;3.28;;
51556;SDS011;38766;53.194;5.532;2023-06-10T09:32:13;5.78;;;3.63;;
51556;SDS011;38766;53.194;5.532;2023-06-10T09:34:39;4.38;;;3.53;;
51556;SDS011;38766;53.194;5.532;2023-06-10T09:37:05;5.47;;;3.30;;
51556;SDS011;38766;53.194;5.532;2023-06-10T09:39:30;7.07;;;3.42;;
51556;SDS011;38766;53.194;5.532;2023-06-10T09:41:56;6.30;;;3.25;;
51556;SDS011;38766;53.194;5.532;2023-06-10T09:44:21;4.60;;;3.17;;
51556;SDS011;38766;53.194;5.532;2023-06-10T09:46:49;4.60;;;3.30;;
51556;SDS011;38766;53.194;5.532;2023-06-10T09:49:19;4.15;;;3.17;;
51556;SDS011;38766;53.194;5.532;2023-06-10T09:51:49;8.20;;;3.58;;
51556;SDS011;38766;53.194;5.532;2023-06-10T09:54:15;4.43;;;3.35;;
51556;SDS011;38766;53.194;5.532;2023-06-10T09:56:41;6.50;;;3.80;;
51556;SDS011;38766;53.194;5.532;2023-06-10T09:59:07;5.78;;;3.65;;
51556;SDS011;38766;53.194;5.532;2023-06-10T10:01:34;5.43;;;3.25;;
51556;SDS011;38766;53.194;5.532;2023-06-10T10:04:00;5.63;;;3.75;;
51556;SDS011;38766;53.194;5.532;2023-06-10T10:06:26;8.48;;;4.20;;
51556;SDS011;38766;53.194;5.532;2023-06-10T10:08:53;6.10;;;3.88;;
51556;SDS011;38766;53.194;5.532;2023-06-10T10:11:20;6.25;;;4.05;;
51556;SDS011;38766;53.194;5.532;2023-06-10T10:13:51;6.85;;;4.13;;
51556;SDS011;38766;53.194;5.532;2023-06-10T10:16:19;6.63;;;3.72;;
51556;SDS011;38766;53.194;5.532;2023-06-10T10:18:51;5.53;;;3.78;;
51556;SDS011;38766;53.194;5.532;2023-06-10T10:21:21;6.57;;;3.60;;
51556;SDS011;38766;53.194;5.532;2023-06-10T10:26:26;5.47;;;3.67;;
51556;SDS011;38766;53.194;5.532;2023-06-10T10:29:01;7.50;;;4.03;;
51556;SDS011;38766;53.194;5.532;2023-06-10T10:31:35;7.20;;;3.90;;
51556;SDS011;38766;53.194;5.532;2023-06-10T10:34:07;8.73;;;3.90;;
51556;SDS011;38766;53.194;5.532;2023-06-10T10:36:36;7.55;;;4.07;;
51556;SDS011;38766;53.194;5.532;2023-06-10T10:39:02;6.57;;;4.28;;
51556;SDS011;38766;53.194;5.532;2023-06-10T10:41:30;6.05;;;3.97;;
51556;SDS011;38766;53.194;5.532;2023-06-10T10:43:57;4.63;;;3.85;;
51556;SDS011;38766;53.194;5.532;2023-06-10T10:46:23;4.63;;;3.63;;
51556;SDS011;38766;53.194;5.532;2023-06-10T10:48:52;5.18;;;3.30;;
51556;SDS011;38766;53.194;5.532;2023-06-10T10:51:19;7.10;;;3.50;;
51556;SDS011;38766;53.194;5.532;2023-06-10T10:54:06;3.92;;;3.30;;
51556;SDS011;38766;53.194;5.532;2023-06-10T10:57:09;6.15;;;3.67;;
51556;SDS011;38766;53.194;5.532;2023-06-10T10:59:45;6.80;;;3.83;;
51556;SDS011;38766;53.194;5.532;2023-06-10T11:04:57;7.30;;;3.58;;
51556;SDS011;38766;53.194;5.532;2023-06-10T11:07:24;7.03;;;4.00;;
51556;SDS011;38766;53.194;5.532;2023-06-10T11:10:33;7.55;;;3.42;;
51556;SDS011;38766;53.194;5.532;2023-06-10T11:12:53;6.05;;;4.25;;
51556;SDS011;38766;53.194;5.532;2023-06-10T11:15:20;5.75;;;3.58;;
51556;SDS011;38766;53.194;5.532;2023-06-10T11:18:23;5.55;;;3.22;;
51556;SDS011;38766;53.194;5.532;2023-06-10T11:28:36;4.40;;;3.38;;
51556;SDS011;38766;53.194;5.532;2023-06-10T11:31:06;4.70;;;3.20;;
51556;SDS011;38766;53.194;5.532;2023-06-10T11:33:33;4.80;;;3.20;;
51556;SDS011;38766;53.194;5.532;2023-06-10T11:36:06;4.05;;;3.22;;
51556;SDS011;38766;53.194;5.532;2023-06-10T11:38:32;4.10;;;2.80;;
51556;SDS011;38766;53.194;5.532;2023-06-10T11:40:58;4.80;;;2.95;;
51556;SDS011;38766;53.194;5.532;2023-06-10T11:43:24;5.38;;;3.30;;
51556;SDS011;38766;53.194;5.532;2023-06-10T11:45:53;4.15;;;3.47;;
51556;SDS011;38766;53.194;5.532;2023-06-10T11:48:20;4.82;;;2.92;;
51556;SDS011;38766;53.194;5.532;2023-06-10T11:50:46;4.00;;;3.20;;
51556;SDS011;38766;53.194;5.532;2023-06-10T11:53:12;4.85;;;2.70;;
51556;SDS011;38766;53.194;5.532;2023-06-10T11:55:47;3.88;;;3.28;;
51556;SDS011;38766;53.194;5.532;2023-06-10T11:58:17;5.65;;;3.13;;
51556;SDS011;38766;53.194;5.532;2023-06-10T12:00:47;5.43;;;3.33;;
51556;SDS011;38766;53.194;5.532;2023-06-10T12:03:13;5.35;;;3.22;;
51556;SDS011;38766;53.194;5.532;2023-06-10T12:05:39;5.72;;;3.70;;
51556;SDS011;38766;53.194;5.532;2023-06-10T12:08:09;5.30;;;3.63;;
51556;SDS011;38766;53.194;5.532;2023-06-10T12:10:39;5.15;;;3.30;;
51556;SDS011;38766;53.194;5.532;2023-06-10T12:13:07;6.50;;;3.38;;
51556;SDS011;38766;53.194;5.532;2023-06-10T12:15:34;5.88;;;3.63;;
51556;SDS011;38766;53.194;5.532;2023-06-10T12:18:00;4.88;;;3.67;;
51556;SDS011;38766;53.194;5.532;2023-06-10T12:20:30;5.78;;;3.55;;
51556;SDS011;38766;53.194;5.532;2023-06-10T12:23:00;6.95;;;3.60;;
51556;SDS011;38766;53.194;5.532;2023-06-10T12:27:59;4.75;;;3.40;;
51556;SDS011;38766;53.194;5.532;2023-06-10T12:30:25;6.35;;;3.55;;
51556;SDS011;38766;53.194;5.532;2023-06-10T12:32:51;11.25;;;3.92;;
51556;SDS011;38766;53.194;5.532;2023-06-10T12:35:19;7.90;;;3.95;;
51556;SDS011;38766;53.194;5.532;2023-06-10T12:38:04;10.52;;;4.90;;
51556;SDS011;38766;53.194;5.532;2023-06-10T12:40:34;6.18;;;4.10;;
51556;SDS011;38766;53.194;5.532;2023-06-10T12:43:02;10.02;;;4.57;;
51556;SDS011;38766;53.194;5.532;2023-06-10T12:48:08;10.23;;;5.13;;
51556;SDS011;38766;53.194;5.532;2023-06-10T12:50:36;8.98;;;4.85;;
51556;SDS011;38766;53.194;5.532;2023-06-10T12:53:05;7.63;;;4.72;;
51556;SDS011;38766;53.194;5.532;2023-06-10T12:55:32;15.05;;;4.50;;
51556;SDS011;38766;53.194;5.532;2023-06-10T12:57:58;9.63;;;5.10;;
51556;SDS011;38766;53.194;5.532;2023-06-10T13:00:25;11.30;;;4.88;;
51556;SDS011;38766;53.194;5.532;2023-06-10T13:02:51;8.88;;;4.53;;
51556;SDS011;38766;53.194;5.532;2023-06-10T13:05:18;11.25;;;4.85;;
51556;SDS011;38766;53.194;5.532;2023-06-10T13:07:45;11.88;;;5.35;;
51556;SDS011;38766;53.194;5.532;2023-06-10T13:10:12;13.10;;;4.80;;
51556;SDS011;38766;53.194;5.532;2023-06-10T13:12:38;8.98;;;4.80;;
51556;SDS011;38766;53.194;5.532;2023-06-10T13:15:04;9.68;;;4.85;;
51556;SDS011;38766;53.194;5.532;2023-06-10T13:17:30;13.45;;;4.90;;
51556;SDS011;38766;53.194;5.532;2023-06-10T13:19:56;11.70;;;5.00;;
51556;SDS011;38766;53.194;5.532;2023-06-10T13:22:22;11.32;;;4.57;;
51556;SDS011;38766;53.194;5.532;2023-06-10T13:24:49;7.55;;;4.20;;
51556;SDS011;38766;53.194;5.532;2023-06-10T13:27:14;9.27;;;4.68;;
51556;SDS011;38766;53.194;5.532;2023-06-10T13:29:40;9.13;;;4.75;;
51556;SDS011;38766;53.194;5.532;2023-06-10T13:32:06;7.93;;;4.38;;
51556;SDS011;38766;53.194;5.532;2023-06-10T13:34:32;13.43;;;5.57;;
51556;SDS011;38766;53.194;5.532;2023-06-10T13:36:57;8.63;;;4.25;;
51556;SDS011;38766;53.194;5.532;2023-06-10T13:39:24;7.65;;;4.47;;
51556;SDS011;38766;53.194;5.532;2023-06-10T13:41:49;7.82;;;3.90;;
51556;SDS011;38766;53.194;5.532;2023-06-10T13:44:17;7.25;;;4.00;;
51556;SDS011;38766;53.194;5.532;2023-06-10T13:46:42;9.02;;;4.50;;
51556;SDS011;38766;53.194;5.532;2023-06-10T13:49:08;7.82;;;4.30;;
51556;SDS011;38766;53.194;5.532;2023-06-10T13:51:34;10.25;;;4.68;;
51556;SDS011;38766;53.194;5.532;2023-06-10T13:53:59;8.30;;;4.63;;
51556;SDS011;38766;53.194;5.532;2023-06-10T13:56:25;10.32;;;4.43;;
51556;SDS011;38766;53.194;5.532;2023-06-10T13:58:50;14.27;;;5.00;;
51556;SDS011;38766;53.194;5.532;2023-06-10T14:01:16;12.05;;;4.78;;
51556;SDS011;38766;53.194;5.532;2023-06-10T14:03:42;8.35;;;4.60;;
51556;SDS011;38766;53.194;5.532;2023-06-10T14:06:07;12.18;;;5.93;;
51556;SDS011;38766;53.194;5.532;2023-06-10T14:08:33;8.98;;;4.88;;
51556;SDS011;38766;53.194;5.532;2023-06-10T14:11:02;10.80;;;4.20;;
51556;SDS011;38766;53.194;5.532;2023-06-10T14:13:27;11.85;;;4.82;;
51556;SDS011;38766;53.194;5.532;2023-06-10T14:15:54;8.90;;;4.47;;
51556;SDS011;38766;53.194;5.532;2023-06-10T14:18:20;15.23;;;7.70;;
51556;SDS011;38766;53.194;5.532;2023-06-10T14:20:45;9.73;;;4.95;;
51556;SDS011;38766;53.194;5.532;2023-06-10T14:23:11;11.15;;;3.75;;
51556;SDS011;38766;53.194;5.532;2023-06-10T14:25:36;12.05;;;4.38;;
51556;SDS011;38766;53.194;5.532;2023-06-10T14:28:02;15.68;;;4.13;;
51556;SDS011;38766;53.194;5.532;2023-06-10T14:30:28;9.07;;;4.25;;
51556;SDS011;38766;53.194;5.532;2023-06-10T14:32:54;11.32;;;4.55;;
51556;SDS011;38766;53.194;5.532;2023-06-10T14:35:19;10.80;;;4.30;;
51556;SDS011;38766;53.194;5.532;2023-06-10T14:37:46;7.10;;;4.35;;
51556;SDS011;38766;53.194;5.532;2023-06-10T14:40:12;6.18;;;3.70;;
51556;SDS011;38766;53.194;5.532;2023-06-10T14:42:37;10.85;;;4.53;;
51556;SDS011;38766;53.194;5.532;2023-06-10T14:45:03;7.22;;;4.15;;
51556;SDS011;38766;53.194;5.532;2023-06-10T14:47:30;10.27;;;4.50;;
51556;SDS011;38766;53.194;5.532;2023-06-10T14:49:56;9.45;;;4.00;;
51556;SDS011;38766;53.194;5.532;2023-06-10T14:52:21;12.68;;;4.50;;
51556;SDS011;38766;53.194;5.532;2023-06-10T14:54:47;8.65;;;4.25;;
51556;SDS011;38766;53.194;5.532;2023-06-10T14:57:16;9.35;;;3.97;;
51556;SDS011;38766;53.194;5.532;2023-06-10T14:59:41;10.93;;;4.40;;
51556;SDS011;38766;53.194;5.532;2023-06-10T15:02:07;6.85;;;3.50;;
51556;SDS011;38766;53.194;5.532;2023-06-10T15:04:35;8.52;;;4.22;;
51556;SDS011;38766;53.194;5.532;2023-06-10T15:07:01;8.68;;;4.10;;
51556;SDS011;38766;53.194;5.532;2023-06-10T15:09:26;8.98;;;3.85;;